sensor_id;sensor_type;location;lat;lon;timestamp;pressure;altitude;pressure_sealevel;temperature;humidity
70468;BME280;57934;51.532;7.684;2023-02-18T00:01:37;100921.97;;;9.30;100.00
70468;BME280;57934;51.532;7.684;2023-02-18T00:04:03;100923.94;;;9.28;100.00
70468;BME280;57934;51.532;7.684;2023-02-18T00:06:32;100925.59;;;9.29;100.00
70468;BME280;57934;51.532;7.684;2023-02-18T00:08:59;100927.41;;;9.29;100.00
70468;BME280;57934;51.532;7.684;2023-02-18T00:11:28;100925.44;;;9.31;100.00
70468;BME280;57934;51.532;7.684;2023-02-18T00:13:57;100920.81;;;9.33;100.00
70468;BME280;57934;51.532;7.684;2023-02-18T00:16:25;100920.03;;;9.24;100.00
70468;BME280;57934;51.532;7.684;2023-02-18T00:18:56;100913.25;;;9.30;100.00
70468;BME280;57934;51.532;7.684;2023-02-18T00:21:23;100925.44;;;9.31;100.00
70468;BME280;57934;51.532;7.684;2023-02-18T00:23:49;100918.84;;;9.35;100.00
70468;BME280;57934;51.532;7.684;2023-02-18T00:26:17;100925.75;;;9.28;100.00
70468;BME280;57934;51.532;7.684;2023-02-18T00:28:44;100922.63;;;9.32;100.00
70468;BME280;57934;51.532;7.684;2023-02-18T00:31:16;100922.47;;;9.34;100.00
70468;BME280;57934;51.532;7.684;2023-02-18T00:33:43;100928.06;;;9.31;100.00
70468;BME280;57934;51.532;7.684;2023-02-18T00:36:13;100922.81;;;9.31;100.00
70468;BME280;57934;51.532;7.684;2023-02-18T00:38:44;100915.38;;;9.26;100.00
70468;BME280;57934;51.532;7.684;2023-02-18T00:41:10;100913.75;;;9.25;100.00
70468;BME280;57934;51.532;7.684;2023-02-18T00:43:36;100912.28;;;9.23;100.00
70468;BME280;57934;51.532;7.684;2023-02-18T00:46:02;100906.88;;;9.24;100.00
70468;BME280;57934;51.532;7.684;2023-02-18T00:48:28;100901.25;;;9.27;100.00
70468;BME280;57934;51.532;7.684;2023-02-18T00:50:54;100886.44;;;9.26;100.00
70468;BME280;57934;51.532;7.684;2023-02-18T00:53:22;100893.53;;;9.26;100.00
70468;BME280;57934;51.532;7.684;2023-02-18T00:55:49;100890.25;;;9.24;100.00
70468;BME280;57934;51.532;7.684;2023-02-18T00:58:15;100879.22;;;9.28;100.00
70468;BME280;57934;51.532;7.684;2023-02-18T01:00:41;100883.19;;;9.24;100.00
70468;BME280;57934;51.532;7.684;2023-02-18T01:03:08;100893.53;;;9.26;100.00
70468;BME280;57934;51.532;7.684;2023-02-18T01:05:35;100887.44;;;9.25;100.00
70468;BME280;57934;51.532;7.684;2023-02-18T01:08:01;100880.53;;;9.24;100.00
70468;BME280;57934;51.532;7.684;2023-02-18T01:10:29;100878.91;;;9.23;100.00
70468;BME280;57934;51.532;7.684;2023-02-18T01:12:55;100874.13;;;9.27;100.00
70468;BME280;57934;51.532;7.684;2023-02-18T01:15:21;100877.25;;;9.30;100.00
70468;BME280;57934;51.532;7.684;2023-02-18T01:17:47;100877.25;;;9.30;100.00
70468;BME280;57934;51.532;7.684;2023-02-18T01:20:14;100879.03;;;9.30;100.00
70468;BME280;57934;51.532;7.684;2023-02-18T01:22:40;100881.84;;;9.28;100.00
70468;BME280;57934;51.532;7.684;2023-02-18T01:25:08;100886.81;;;9.23;100.00
70468;BME280;57934;51.532;7.684;2023-02-18T01:27:35;100890.25;;;9.24;100.00
70468;BME280;57934;51.532;7.684;2023-02-18T01:30:03;100885.00;;;9.24;100.00
70468;BME280;57934;51.532;7.684;2023-02-18T01:32:29;100880.53;;;9.24;100.00
70468;BME280;57934;51.532;7.684;2023-02-18T01:34:55;100870.50;;;9.28;100.00
70468;BME280;57934;51.532;7.684;2023-02-18T01:37:21;100882.66;;;9.29;100.00
70468;BME280;57934;51.532;7.684;2023-02-18T01:39:50;100883.00;;;9.26;100.00
70468;BME280;57934;51.532;7.684;2023-02-18T01:42:21;100871.50;;;9.27;100.00
70468;BME280;57934;51.532;7.684;2023-02-18T01:44:47;100869.69;;;9.27;100.00
70468;BME280;57934;51.532;7.684;2023-02-18T01:47:15;100866.41;;;9.25;100.00
70468;BME280;57934;51.532;7.684;2023-02-18T01:49:41;100869.22;;;9.24;100.00
70468;BME280;57934;51.532;7.684;2023-02-18T01:52:17;100863.59;;;9.27;100.00
70468;BME280;57934;51.532;7.684;2023-02-18T01:54:47;100859.16;;;9.27;100.00
70468;BME280;57934;51.532;7.684;2023-02-18T01:57:19;100862.75;;;9.26;100.00
70468;BME280;57934;51.532;7.684;2023-02-18T01:59:50;100859.50;;;9.24;100.00
70468;BME280;57934;51.532;7.684;2023-02-18T02:02:19;100853.09;;;9.27;100.00
70468;BME280;57934;51.532;7.684;2023-02-18T02:04:46;100859.50;;;9.24;100.00
70468;BME280;57934;51.532;7.684;2023-02-18T02:07:13;100856.34;;;9.29;100.00
70468;BME280;57934;51.532;7.684;2023-02-18T02:09:41;100861.13;;;9.25;100.00
70468;BME280;57934;51.532;7.684;2023-02-18T02:12:19;100855.72;;;9.27;100.00
70468;BME280;57934;51.532;7.684;2023-02-18T02:17:56;100851.25;;;9.27;100.00
70468;BME280;57934;51.532;7.684;2023-02-18T02:26:21;100844.00;;;9.29;100.00
70468;BME280;57934;51.532;7.684;2023-02-18T02:32:00;100848.78;;;9.26;100.00
70468;BME280;57934;51.532;7.684;2023-02-18T02:39:54;100827.91;;;9.24;100.00
70468;BME280;57934;51.532;7.684;2023-02-18T02:47:24;100816.72;;;9.30;100.00
70468;BME280;57934;51.532;7.684;2023-02-18T02:52:40;100820.03;;;9.24;100.00
70468;BME280;57934;51.532;7.684;2023-02-18T02:55:10;100811.47;;;9.22;100.00
70468;BME280;57934;51.532;7.684;2023-02-18T02:57:51;100808.38;;;9.19;100.00
70468;BME280;57934;51.532;7.684;2023-02-18T03:00:38;100808.22;;;9.20;100.00
70468;BME280;57934;51.532;7.684;2023-02-18T03:03:21;100802.59;;;9.23;100.00
70468;BME280;57934;51.532;7.684;2023-02-18T03:11:46;100790.59;;;9.21;100.00
70468;BME280;57934;51.532;7.684;2023-02-18T03:14:29;100776.78;;;9.19;100.00
70468;BME280;57934;51.532;7.684;2023-02-18T03:17:15;100779.41;;;9.19;100.00
70468;BME280;57934;51.532;7.684;2023-02-18T03:19:50;100778.28;;;9.21;100.00
70468;BME280;57934;51.532;7.684;2023-02-18T03:22:25;100764.44;;;9.19;100.00
70468;BME280;57934;51.532;7.684;2023-02-18T03:24:53;100770.72;;;9.18;100.00
70468;BME280;57934;51.532;7.684;2023-02-18T03:27:29;100754.78;;;9.20;100.00
70468;BME280;57934;51.532;7.684;2023-02-18T03:30:02;100749.31;;;9.21;100.00
70468;BME280;57934;51.532;7.684;2023-02-18T03:32:30;100746.03;;;9.19;100.00
70468;BME280;57934;51.532;7.684;2023-02-18T03:35:02;100740.13;;;9.17;100.00
70468;BME280;57934;51.532;7.684;2023-02-18T03:37:35;100727.63;;;9.19;100.00
70468;BME280;57934;51.532;7.684;2023-02-18T03:40:23;100732.25;;;9.17;100.00
70468;BME280;57934;51.532;7.684;2023-02-18T03:42:49;100736.16;;;9.21;100.00
70468;BME280;57934;51.532;7.684;2023-02-18T03:45:16;100732.38;;;9.24;100.00
70468;BME280;57934;51.532;7.684;2023-02-18T03:47:42;100730.09;;;9.21;100.00
70468;BME280;57934;51.532;7.684;2023-02-18T03:50:08;100728.94;;;9.23;100.00
70468;BME280;57934;51.532;7.684;2023-02-18T03:52:34;100726.13;;;9.25;100.00
70468;BME280;57934;51.532;7.684;2023-02-18T03:55:04;100720.38;;;9.21;100.00
70468;BME280;57934;51.532;7.684;2023-02-18T03:57:31;100719.56;;;9.21;100.00
70468;BME280;57934;51.532;7.684;2023-02-18T03:59:57;100719.91;;;9.18;100.00
70468;BME280;57934;51.532;7.684;2023-02-18T04:02:23;100708.22;;;9.20;100.00
70468;BME280;57934;51.532;7.684;2023-02-18T04:04:49;100708.03;;;9.22;100.00
70468;BME280;57934;51.532;7.684;2023-02-18T04:07:15;100708.50;;;9.25;100.00
70468;BME280;57934;51.532;7.684;2023-02-18T04:09:40;100702.97;;;9.20;100.00
70468;BME280;57934;51.532;7.684;2023-02-18T04:12:06;100693.78;;;9.16;100.00
70468;BME280;57934;51.532;7.684;2023-02-18T04:14:32;100698.84;;;9.18;100.00
70468;BME280;57934;51.532;7.684;2023-02-18T04:16:58;100697.34;;;9.23;100.00
70468;BME280;57934;51.532;7.684;2023-02-18T04:19:26;100699.88;;;9.17;100.00
70468;BME280;57934;51.532;7.684;2023-02-18T04:21:52;100684.69;;;9.19;100.00
70468;BME280;57934;51.532;7.684;2023-02-18T04:24:18;100686.00;;;9.23;100.00
70468;BME280;57934;51.532;7.684;2023-02-18T04:26:44;100679.56;;;9.25;100.00
70468;BME280;57934;51.532;7.684;2023-02-18T04:29:10;100685.50;;;9.27;100.00
70468;BME280;57934;51.532;7.684;2023-02-18T04:31:36;100687.13;;;9.28;100.00
70468;BME280;57934;51.532;7.684;2023-02-18T04:34:02;100679.56;;;9.25;100.00
70468;BME280;57934;51.532;7.684;2023-02-18T04:36:28;100673.78;;;9.30;100.00
70468;BME280;57934;51.532;7.684;2023-02-18T04:38:54;100671.97;;;9.30;100.00
70468;BME280;57934;51.532;7.684;2023-02-18T04:41:20;100667.69;;;9.29;100.00
70468;BME280;57934;51.532;7.684;2023-02-18T04:43:46;100660.81;;;9.28;100.00
70468;BME280;57934;51.532;7.684;2023-02-18T04:46:12;100653.72;;;9.29;100.00
70468;BME280;57934;51.532;7.684;2023-02-18T04:48:38;100644.19;;;9.28;100.00
70468;BME280;57934;51.532;7.684;2023-02-18T04:51:04;100644.81;;;9.30;100.00
70468;BME280;57934;51.532;7.684;2023-02-18T04:53:30;100642.38;;;9.28;100.00
70468;BME280;57934;51.532;7.684;2023-02-18T04:55:56;100639.75;;;9.28;100.00
70468;BME280;57934;51.532;7.684;2023-02-18T04:58:22;100648.00;;;9.25;100.00
70468;BME280;57934;51.532;7.684;2023-02-18T05:00:48;100638.13;;;9.27;100.00
70468;BME280;57934;51.532;7.684;2023-02-18T05:03:14;100634.50;;;9.28;100.00
70468;BME280;57934;51.532;7.684;2023-02-18T05:05:40;100631.66;;;9.30;100.00
70468;BME280;57934;51.532;7.684;2023-02-18T05:08:07;100628.22;;;9.29;100.00
70468;BME280;57934;51.532;7.684;2023-02-18T05:10:33;100623.16;;;9.28;100.00
70468;BME280;57934;51.532;7.684;2023-02-18T05:12:59;100616.41;;;9.25;100.00
70468;BME280;57934;51.532;7.684;2023-02-18T05:15:25;100620.22;;;9.23;100.00
70468;BME280;57934;51.532;7.684;2023-02-18T05:17:51;100628.56;;;9.26;100.00
70468;BME280;57934;51.532;7.684;2023-02-18T05:20:17;100615.94;;;9.22;100.00
70468;BME280;57934;51.532;7.684;2023-02-18T05:22:43;100614.59;;;9.26;100.00
70468;BME280;57934;51.532;7.684;2023-02-18T05:25:09;100621.22;;;9.22;100.00
70468;BME280;57934;51.532;7.684;2023-02-18T05:27:35;100616.28;;;9.19;100.00
70468;BME280;57934;51.532;7.684;2023-02-18T05:30:02;100610.69;;;9.22;100.00
70468;BME280;57934;51.532;7.684;2023-02-18T05:32:28;100613.16;;;9.23;100.00
70468;BME280;57934;51.532;7.684;2023-02-18T05:34:54;100605.63;;;9.20;100.00
70468;BME280;57934;51.532;7.684;2023-02-18T05:37:20;100593.28;;;9.21;100.00
70468;BME280;57934;51.532;7.684;2023-02-18T05:39:46;100585.53;;;9.19;100.00
70468;BME280;57934;51.532;7.684;2023-02-18T05:42:12;100585.06;;;9.16;100.00
70468;BME280;57934;51.532;7.684;2023-02-18T05:44:38;100578.19;;;9.15;100.00
70468;BME280;57934;51.532;7.684;2023-02-18T05:47:09;100570.94;;;9.17;100.00
70468;BME280;57934;51.532;7.684;2023-02-18T05:49:35;100564.22;;;9.14;100.00
70468;BME280;57934;51.532;7.684;2023-02-18T05:52:02;100565.56;;;9.10;100.00
70468;BME280;57934;51.532;7.684;2023-02-18T05:54:28;100546.97;;;9.12;100.00
70468;BME280;57934;51.532;7.684;2023-02-18T05:56:55;100546.16;;;9.11;100.00
70468;BME280;57934;51.532;7.684;2023-02-18T05:59:21;100549.13;;;9.08;100.00
70468;BME280;57934;51.532;7.684;2023-02-18T06:01:47;100546.16;;;9.11;100.00
70468;BME280;57934;51.532;7.684;2023-02-18T06:04:14;100540.06;;;9.11;100.00
70468;BME280;57934;51.532;7.684;2023-02-18T06:06:40;100536.63;;;9.10;100.00
70468;BME280;57934;51.532;7.684;2023-02-18T06:09:07;100523.63;;;9.08;100.00
70468;BME280;57934;51.532;7.684;2023-02-18T06:11:33;100536.97;;;9.07;100.00
70468;BME280;57934;51.532;7.684;2023-02-18T06:14:00;100530.56;;;9.10;100.00
70468;BME280;57934;51.532;7.684;2023-02-18T06:16:26;100525.66;;;9.06;100.00
70468;BME280;57934;51.532;7.684;2023-02-18T06:18:53;100525.00;;;9.04;100.00
70468;BME280;57934;51.532;7.684;2023-02-18T06:21:19;100520.75;;;9.03;100.00
70468;BME280;57934;51.532;7.684;2023-02-18T06:23:46;100528.63;;;9.03;100.00
70468;BME280;57934;51.532;7.684;2023-02-18T06:26:12;100523.53;;;9.02;100.00
70468;BME280;57934;51.532;7.684;2023-02-18T06:28:38;100515.47;;;9.03;100.00
70468;BME280;57934;51.532;7.684;2023-02-18T06:31:04;100511.38;;;9.01;100.00
70468;BME280;57934;51.532;7.684;2023-02-18T06:33:30;100506.44;;;9.06;100.00
70468;BME280;57934;51.532;7.684;2023-02-18T06:36:00;100513.47;;;9.05;100.00
70468;BME280;57934;51.532;7.684;2023-02-18T06:38:26;100521.19;;;9.07;100.00
70468;BME280;57934;51.532;7.684;2023-02-18T06:40:52;100513.66;;;9.04;100.00
70468;BME280;57934;51.532;7.684;2023-02-18T06:43:19;100519.13;;;9.02;100.00
70468;BME280;57934;51.532;7.684;2023-02-18T06:45:45;100528.44;;;9.05;100.00
70468;BME280;57934;51.532;7.684;2023-02-18T06:48:12;100526.00;;;9.03;100.00
70468;BME280;57934;51.532;7.684;2023-02-18T06:50:40;100526.63;;;9.05;100.00
70468;BME280;57934;51.532;7.684;2023-02-18T06:53:06;100525.00;;;9.04;100.00
70468;BME280;57934;51.532;7.684;2023-02-18T06:55:32;100536.88;;;9.00;100.00
70468;BME280;57934;51.532;7.684;2023-02-18T06:57:58;100526.16;;;9.02;100.00
70468;BME280;57934;51.532;7.684;2023-02-18T07:00:24;100530.97;;;8.98;100.00
70468;BME280;57934;51.532;7.684;2023-02-18T07:02:50;100526.81;;;9.04;100.00
70468;BME280;57934;51.532;7.684;2023-02-18T07:05:16;100530.09;;;9.06;100.00
70468;BME280;57934;51.532;7.684;2023-02-18T07:07:42;100526.47;;;9.07;100.00
70468;BME280;57934;51.532;7.684;2023-02-18T07:10:08;100521.75;;;9.02;100.00
70468;BME280;57934;51.532;7.684;2023-02-18T07:12:35;100503.94;;;9.04;100.00
70468;BME280;57934;51.532;7.684;2023-02-18T07:15:01;100516.28;;;9.04;100.00
70468;BME280;57934;51.532;7.684;2023-02-18T07:17:27;100502.13;;;9.05;100.00
70468;BME280;57934;51.532;7.684;2023-02-18T07:19:53;100504.97;;;9.03;100.00
70468;BME280;57934;51.532;7.684;2023-02-18T07:22:20;100514.31;;;9.06;100.00
70468;BME280;57934;51.532;7.684;2023-02-18T07:24:52;100499.69;;;9.03;100.00
70468;BME280;57934;51.532;7.684;2023-02-18T07:27:19;100513.66;;;9.04;100.00
70468;BME280;57934;51.532;7.684;2023-02-18T07:29:46;100515.28;;;9.05;100.00
70468;BME280;57934;51.532;7.684;2023-02-18T07:32:13;100522.38;;;9.04;100.00
70468;BME280;57934;51.532;7.684;2023-02-18T07:34:39;100529.25;;;9.05;100.00
70468;BME280;57934;51.532;7.684;2023-02-18T07:37:05;100524.00;;;9.05;100.00
70468;BME280;57934;51.532;7.684;2023-02-18T07:39:35;100525.47;;;9.08;100.00
70468;BME280;57934;51.532;7.684;2023-02-18T07:42:02;100532.72;;;9.06;100.00
70468;BME280;57934;51.532;7.684;2023-02-18T07:44:31;100526.81;;;9.04;100.00
70468;BME280;57934;51.532;7.684;2023-02-18T07:46:57;100534.91;;;9.02;100.00
70468;BME280;57934;51.532;7.684;2023-02-18T07:49:24;100537.16;;;9.05;100.00
70468;BME280;57934;51.532;7.684;2023-02-18T07:51:50;100541.09;;;9.10;100.00
70468;BME280;57934;51.532;7.684;2023-02-18T07:54:16;100550.94;;;9.07;100.00
70468;BME280;57934;51.532;7.684;2023-02-18T07:56:44;100522.38;;;9.04;100.00
70468;BME280;57934;51.532;7.684;2023-02-18T07:59:11;100536.69;;;9.02;100.00
70468;BME280;57934;51.532;7.684;2023-02-18T08:01:38;100537.06;;;8.99;100.00
70468;BME280;57934;51.532;7.684;2023-02-18T08:04:04;100544.22;;;9.05;100.00
70468;BME280;57934;51.532;7.684;2023-02-18T08:06:39;100546.22;;;9.03;100.00
70468;BME280;57934;51.532;7.684;2023-02-18T08:09:05;100542.94;;;9.01;100.00
70468;BME280;57934;51.532;7.684;2023-02-18T08:11:32;100552.84;;;8.99;100.00
70468;BME280;57934;51.532;7.684;2023-02-18T08:13:58;100551.03;;;8.99;100.00
70468;BME280;57934;51.532;7.684;2023-02-18T08:16:24;100563.97;;;9.01;100.00
70468;BME280;57934;51.532;7.684;2023-02-18T08:18:51;100562.00;;;9.03;100.00
70468;BME280;57934;51.532;7.684;2023-02-18T08:21:19;100562.63;;;9.05;100.00
70468;BME280;57934;51.532;7.684;2023-02-18T08:23:46;100575.28;;;9.10;100.00
70468;BME280;57934;51.532;7.684;2023-02-18T08:26:13;100560.66;;;9.07;100.00
70468;BME280;57934;51.532;7.684;2023-02-18T08:28:43;100550.50;;;9.04;100.00
70468;BME280;57934;51.532;7.684;2023-02-18T08:31:23;100556.09;;;9.01;100.00
70468;BME280;57934;51.532;7.684;2023-02-18T08:33:51;100563.63;;;9.04;100.00
70468;BME280;57934;51.532;7.684;2023-02-18T08:36:18;100555.66;;;9.12;100.00
70468;BME280;57934;51.532;7.684;2023-02-18T08:38:44;100554.50;;;9.15;100.00
70468;BME280;57934;51.532;7.684;2023-02-18T08:41:11;100570.94;;;9.17;100.00
70468;BME280;57934;51.532;7.684;2023-02-18T08:43:39;100559.22;;;9.19;100.00
70468;BME280;57934;51.532;7.684;2023-02-18T08:46:05;100562.25;;;9.16;100.00
70468;BME280;57934;51.532;7.684;2023-02-18T08:48:31;100549.25;;;9.15;100.00
70468;BME280;57934;51.532;7.684;2023-02-18T08:50:58;100542.13;;;9.23;100.00
70468;BME280;57934;51.532;7.684;2023-02-18T08:53:24;100542.38;;;9.28;100.00
70468;BME280;57934;51.532;7.684;2023-02-18T08:55:50;100534.03;;;9.25;100.00
70468;BME280;57934;51.532;7.684;2023-02-18T08:58:16;100527.59;;;9.27;100.00
70468;BME280;57934;51.532;7.684;2023-02-18T09:00:43;100529.94;;;9.22;100.00
70468;BME280;57934;51.532;7.684;2023-02-18T09:03:13;100545.25;;;9.19;100.00
70468;BME280;57934;51.532;7.684;2023-02-18T09:05:39;100533.94;;;9.18;100.00
70468;BME280;57934;51.532;7.684;2023-02-18T09:08:06;100525.50;;;9.23;100.00
70468;BME280;57934;51.532;7.684;2023-02-18T09:10:32;100524.31;;;9.25;100.00
70468;BME280;57934;51.532;7.684;2023-02-18T09:12:58;100538.25;;;9.34;100.00
70468;BME280;57934;51.532;7.684;2023-02-18T09:15:23;100522.44;;;9.34;100.00
70468;BME280;57934;51.532;7.684;2023-02-18T09:17:49;100532.22;;;9.40;100.00
70468;BME280;57934;51.532;7.684;2023-02-18T09:20:15;100534.34;;;9.45;100.00
70468;BME280;57934;51.532;7.684;2023-02-18T09:22:41;100548.44;;;9.52;100.00
70468;BME280;57934;51.532;7.684;2023-02-18T09:25:08;100532.53;;;9.45;100.00
70468;BME280;57934;51.532;7.684;2023-02-18T09:27:34;100534.81;;;9.48;99.84
70468;BME280;57934;51.532;7.684;2023-02-18T09:30:00;100536.78;;;9.46;99.01
70468;BME280;57934;51.532;7.684;2023-02-18T09:32:25;100541.59;;;9.43;98.77
70468;BME280;57934;51.532;7.684;2023-02-18T09:34:51;100554.75;;;9.43;99.04
70468;BME280;57934;51.532;7.684;2023-02-18T09:37:17;100541.22;;;9.31;98.27
70468;BME280;57934;51.532;7.684;2023-02-18T09:39:47;100543.91;;;9.23;98.23
70468;BME280;57934;51.532;7.684;2023-02-18T09:42:15;100553.81;;;9.21;98.06
70468;BME280;57934;51.532;7.684;2023-02-18T09:44:54;100546.06;;;9.19;97.30
70468;BME280;57934;51.532;7.684;2023-02-18T09:47:42;100552.66;;;9.23;97.17
70468;BME280;57934;51.532;7.684;2023-02-18T09:50:21;100546.84;;;9.28;96.69
70468;BME280;57934;51.532;7.684;2023-02-18T09:52:48;100529.69;;;9.32;96.20
70468;BME280;57934;51.532;7.684;2023-02-18T09:55:31;100519.97;;;9.32;96.39
70468;BME280;57934;51.532;7.684;2023-02-18T09:58:12;100533.13;;;9.32;95.91
70468;BME280;57934;51.532;7.684;2023-02-18T10:00:42;100539.41;;;9.31;95.41
70468;BME280;57934;51.532;7.684;2023-02-18T10:03:15;100543.03;;;9.30;95.65
70468;BME280;57934;51.532;7.684;2023-02-18T10:06:03;100524.56;;;9.16;96.42
70468;BME280;57934;51.532;7.684;2023-02-18T10:08:47;100543.41;;;9.04;97.16
70468;BME280;57934;51.532;7.684;2023-02-18T10:11:22;100546.13;;;8.96;98.38
70468;BME280;57934;51.532;7.684;2023-02-18T10:13:49;100544.59;;;8.79;98.78
70468;BME280;57934;51.532;7.684;2023-02-18T10:16:18;100553.00;;;8.74;100.00
70468;BME280;57934;51.532;7.684;2023-02-18T10:18:45;100544.28;;;8.74;100.00
70468;BME280;57934;51.532;7.684;2023-02-18T10:21:20;100546.44;;;8.70;100.00
70468;BME280;57934;51.532;7.684;2023-02-18T10:24:03;100550.25;;;8.68;100.00
70468;BME280;57934;51.532;7.684;2023-02-18T10:26:33;100540.91;;;8.65;100.00
70468;BME280;57934;51.532;7.684;2023-02-18T10:29:00;100547.91;;;8.73;100.00
70468;BME280;57934;51.532;7.684;2023-02-18T10:31:40;100564.00;;;8.78;100.00
70468;BME280;57934;51.532;7.684;2023-02-18T10:34:22;100552.13;;;8.82;100.00
70468;BME280;57934;51.532;7.684;2023-02-18T10:37:03;100562.00;;;8.80;100.00
70468;BME280;57934;51.532;7.684;2023-02-18T10:39:57;100537.41;;;8.73;100.00
70468;BME280;57934;51.532;7.684;2023-02-18T10:42:49;100548.22;;;8.78;100.00
70468;BME280;57934;51.532;7.684;2023-02-18T10:48:21;100555.78;;;8.81;100.00
70468;BME280;57934;51.532;7.684;2023-02-18T10:50:51;100560.59;;;8.69;100.00
70468;BME280;57934;51.532;7.684;2023-02-18T10:55:55;100565.22;;;8.67;100.00
70468;BME280;57934;51.532;7.684;2023-02-18T10:58:24;100567.13;;;8.73;100.00
70468;BME280;57934;51.532;7.684;2023-02-18T11:00:51;100567.59;;;8.77;100.00
70468;BME280;57934;51.532;7.684;2023-02-18T11:03:36;100571.00;;;8.86;100.00
70468;BME280;57934;51.532;7.684;2023-02-18T11:06:03;100566.69;;;8.93;100.00
70468;BME280;57934;51.532;7.684;2023-02-18T11:08:39;100574.09;;;8.89;100.00
70468;BME280;57934;51.532;7.684;2023-02-18T11:11:22;100574.44;;;8.86;100.00
70468;BME280;57934;51.532;7.684;2023-02-18T11:13:53;100573.28;;;8.89;100.00
70468;BME280;57934;51.532;7.684;2023-02-18T11:16:24;100574.31;;;8.79;100.00
70468;BME280;57934;51.532;7.684;2023-02-18T11:19:00;100572.50;;;8.80;100.00
70468;BME280;57934;51.532;7.684;2023-02-18T11:21:30;100573.56;;;8.71;100.00
70468;BME280;57934;51.532;7.684;2023-02-18T11:24:07;100568.41;;;8.77;100.00
70468;BME280;57934;51.532;7.684;2023-02-18T11:26:33;100571.75;;;8.71;100.00
70468;BME280;57934;51.532;7.684;2023-02-18T11:29:19;100565.28;;;8.82;100.00
70468;BME280;57934;51.532;7.684;2023-02-18T11:31:48;100563.13;;;8.86;100.00
70468;BME280;57934;51.532;7.684;2023-02-18T11:34:19;100560.91;;;8.74;100.00
70468;BME280;57934;51.532;7.684;2023-02-18T11:36:46;100562.22;;;8.70;100.00
70468;BME280;57934;51.532;7.684;2023-02-18T11:39:20;100564.00;;;8.78;100.00
70468;BME280;57934;51.532;7.684;2023-02-18T11:41:56;100568.38;;;8.86;100.00
70468;BME280;57934;51.532;7.684;2023-02-18T11:44:26;100564.97;;;8.77;100.00
70468;BME280;57934;51.532;7.684;2023-02-18T11:49:23;100562.22;;;8.70;100.00
70468;BME280;57934;51.532;7.684;2023-02-18T11:51:50;100568.66;;;8.68;100.00
70468;BME280;57934;51.532;7.684;2023-02-18T11:57:08;100567.13;;;8.73;100.00
70468;BME280;57934;51.532;7.684;2023-02-18T11:59:37;100571.03;;;8.77;100.00
70468;BME280;57934;51.532;7.684;2023-02-18T12:04:41;100563.00;;;8.79;100.00
70468;BME280;57934;51.532;7.684;2023-02-18T12:07:24;100557.09;;;8.77;100.00
70468;BME280;57934;51.532;7.684;2023-02-18T12:09:58;100570.94;;;8.71;100.00
70468;BME280;57934;51.532;7.684;2023-02-18T12:12:37;100564.69;;;8.72;100.00
70468;BME280;57934;51.532;7.684;2023-02-18T12:15:11;100571.22;;;8.76;100.00
70468;BME280;57934;51.532;7.684;2023-02-18T12:17:48;100561.72;;;8.75;100.00
70468;BME280;57934;51.532;7.684;2023-02-18T12:25:56;100572.69;;;8.78;100.00
70468;BME280;57934;51.532;7.684;2023-02-18T12:28:40;100563.28;;;8.84;100.00
70468;BME280;57934;51.532;7.684;2023-02-18T12:44:42;100576.97;;;8.79;100.00
70468;BME280;57934;51.532;7.684;2023-02-18T12:52:39;100566.66;;;8.70;100.00
70468;BME280;57934;51.532;7.684;2023-02-18T12:55:24;100577.34;;;8.68;100.00
70468;BME280;57934;51.532;7.684;2023-02-18T13:00:41;100577.50;;;8.75;100.00
70468;BME280;57934;51.532;7.684;2023-02-18T13:14:13;100575.81;;;8.82;100.00
70468;BME280;57934;51.532;7.684;2023-02-18T13:16:44;100573.31;;;8.80;100.00
70468;BME280;57934;51.532;7.684;2023-02-18T13:19:22;100580.59;;;8.78;100.00
70468;BME280;57934;51.532;7.684;2023-02-18T13:21:52;100581.88;;;8.82;100.00
70468;BME280;57934;51.532;7.684;2023-02-18T13:24:41;100580.72;;;8.85;100.00
70468;BME280;57934;51.532;7.684;2023-02-18T13:27:35;100575.72;;;8.90;100.00
70468;BME280;57934;51.532;7.684;2023-02-18T13:36:02;100565.06;;;8.92;100.00
70468;BME280;57934;51.532;7.684;2023-02-18T13:40:57;100562.59;;;8.90;100.00
70468;BME280;57934;51.532;7.684;2023-02-18T13:54:00;100556.94;;;8.78;100.00
70468;BME280;57934;51.532;7.684;2023-02-18T13:56:30;100568.72;;;8.82;100.00
70468;BME280;57934;51.532;7.684;2023-02-18T13:59:07;100565.56;;;8.87;100.00
70468;BME280;57934;51.532;7.684;2023-02-18T14:01:40;100565.22;;;8.90;100.00
70468;BME280;57934;51.532;7.684;2023-02-18T14:09:54;100564.22;;;8.91;100.00
70468;BME280;57934;51.532;7.684;2023-02-18T14:18:09;100564.53;;;8.96;100.00
70468;BME280;57934;51.532;7.684;2023-02-18T14:28:42;100576.53;;;8.91;100.00
70468;BME280;57934;51.532;7.684;2023-02-18T14:34:14;100576.28;;;8.86;100.00
70468;BME280;57934;51.532;7.684;2023-02-18T14:36:36;100569.38;;;8.84;100.00
70468;BME280;57934;51.532;7.684;2023-02-18T14:39:23;100571.16;;;8.84;100.00
70468;BME280;57934;51.532;7.684;2023-02-18T14:50:17;100579.66;;;8.94;100.00
70468;BME280;57934;51.532;7.684;2023-02-18T14:52:48;100584.44;;;8.91;100.00
70468;BME280;57934;51.532;7.684;2023-02-18T14:55:36;100577.91;;;8.87;100.00
70468;BME280;57934;51.532;7.684;2023-02-18T14:58:12;100581.69;;;8.84;100.00
70468;BME280;57934;51.532;7.684;2023-02-18T15:00:41;100585.63;;;8.88;100.00
70468;BME280;57934;51.532;7.684;2023-02-18T15:03:13;100593.13;;;8.91;100.00
70468;BME280;57934;51.532;7.684;2023-02-18T15:05:40;100587.25;;;8.89;100.00
70468;BME280;57934;51.532;7.684;2023-02-18T15:08:14;100587.72;;;8.93;100.00
70468;BME280;57934;51.532;7.684;2023-02-18T15:10:43;100591.16;;;8.93;100.00
70468;BME280;57934;51.532;7.684;2023-02-18T15:13:29;100593.44;;;8.96;100.00
70468;BME280;57934;51.532;7.684;2023-02-18T15:16:07;100593.91;;;9.00;100.00